Time;durP1;ratioP1;P1;durP2;ratioP2;P2;SDS_P1;SDS_P2;PMS_P1;PMS_P2;Temp;Humidity;BMP_temperature;BMP_pressure;BME280_temperature;BME280_humidity;BME280_pressure;Samples;Min_cycle;Max_cycle;Signal;HPM_P1;HPM_P2
2022/06/13 00:02:06;;;;;;;0.00;0.00;;;19.70;93.80;;;;;;4118225;28;20513;-73
2022/06/13 00:04:36;;;;;;;0.00;0.00;;;19.70;93.50;;;;;;4118045;28;20518;-74
2022/06/13 00:07:07;;;;;;;0.00;0.00;;;19.70;93.40;;;;;;4092471;28;20102;-75
2022/06/13 00:09:29;;;;;;;0.00;0.00;;;19.70;93.30;;;;;;4105078;28;20047;-72
2022/06/13 00:12:02;;;;;;;0.00;0.00;;;19.70;93.20;;;;;;4092383;28;20122;-71
2022/06/13 00:14:25;;;;;;;0.00;0.00;;;19.70;93.20;;;;;;4105089;28;20055;-72
2022/06/13 00:16:47;;;;;;;0.00;0.00;;;19.70;93.10;;;;;;4118138;28;20055;-72
2022/06/13 00:19:09;;;;;;;0.00;0.00;;;19.60;93.40;;;;;;4104632;28;20065;-73
2022/06/13 00:21:38;;;;;;;0.00;0.00;;;19.50;93.20;;;;;;4105606;28;20042;-73
2022/06/13 00:24:14;;;;;;;0.00;0.00;;;19.50;93.20;;;;;;4120242;28;20073;-72
2022/06/13 00:26:37;;;;;;;0.00;0.00;;;19.50;93.10;;;;;;4117888;28;20057;-73
2022/06/13 00:29:00;;;;;;;0.00;0.00;;;19.50;93.10;;;;;;4118887;28;20656;-71
2022/06/13 00:31:29;;;;;;;0.00;0.00;;;19.50;93.10;;;;;;4118646;28;20113;-70
2022/06/13 00:34:05;;;;;;;0.00;0.00;;;19.50;93.20;;;;;;4131447;28;20350;-73
2022/06/13 00:36:32;;;;;;;0.00;0.00;;;19.60;93.10;;;;;;4116965;28;20063;-74
2022/06/13 00:38:57;;;;;;;0.00;0.00;;;19.60;93.00;;;;;;4104300;28;20142;-72
2022/06/13 00:41:26;;;;;;;0.00;0.00;;;19.60;93.10;;;;;;4104423;28;20055;-72
2022/06/13 00:43:53;;;;;;;0.00;0.00;;;19.70;92.80;;;;;;4118722;28;20050;-72
2022/06/13 00:46:21;;;;;;;0.00;0.00;;;19.70;92.70;;;;;;4118625;28;20053;-73
2022/06/13 00:48:50;;;;;;;0.00;0.00;;;19.70;92.60;;;;;;4104462;28;20051;-72
2022/06/13 00:51:14;;;;;;;0.00;0.00;;;19.80;92.60;;;;;;4130674;28;20105;-72
2022/06/13 00:53:43;;;;;;;0.00;0.00;;;19.90;92.40;;;;;;4117148;28;20080;-70
2022/06/13 00:56:10;;;;;;;0.00;0.00;;;19.90;92.10;;;;;;4104315;28;20117;-73
2022/06/13 00:59:03;;;;;;;0.00;0.00;;;19.90;92.20;;;;;;4106669;28;20051;-73
2022/06/13 01:01:29;;;;;;;0.00;0.00;;;19.90;92.10;;;;;;4117495;28;20130;-71
2022/06/13 01:04:02;;;;;;;0.00;0.00;;;19.90;92.10;;;;;;4130203;28;20114;-73
2022/06/13 01:06:29;;;;;;;0.00;0.00;;;20.00;92.10;;;;;;4130791;28;20061;-72
2022/06/13 01:08:58;;;;;;;0.00;0.00;;;20.00;92.00;;;;;;4118251;28;20054;-72
2022/06/13 01:11:30;;;;;;;0.00;0.00;;;20.10;92.00;;;;;;4118409;28;20090;-71
2022/06/13 01:14:22;;;;;;;0.00;0.00;;;20.20;91.80;;;;;;4104103;28;20094;-71
2022/06/13 01:17:03;;;;;;;0.00;0.00;;;20.10;91.70;;;;;;4091805;28;20058;-71
2022/06/13 01:20:07;;;;;;;0.00;0.00;;;20.10;91.70;;;;;;4116630;28;20070;-71
2022/06/13 01:22:59;;;;;;;0.00;0.00;;;20.10;91.70;;;;;;4117422;28;20059;-73
2022/06/13 01:25:49;;;;;;;0.00;0.00;;;20.20;91.70;;;;;;4104257;28;20096;-72
2022/06/13 01:28:26;;;;;;;;;;;20.20;91.70;;;;;;4105021;28;20101;-72
2022/06/13 01:31:05;;;;;;;0.00;0.00;;;20.20;91.60;;;;;;4131100;28;20625;-74
2022/06/13 01:33:57;;;;;;;0.00;0.00;;;20.30;91.30;;;;;;4103882;28;20059;-71
2022/06/13 01:36:31;;;;;;;0.00;0.00;;;20.50;91.20;;;;;;4103947;28;20426;-72
2022/06/13 01:39:01;;;;;;;0.00;0.00;;;20.60;91.00;;;;;;4103589;28;20085;-73
2022/06/13 01:41:58;;;;;;;0.00;0.00;;;20.60;91.10;;;;;;4130573;28;20038;-72
2022/06/13 01:44:36;;;;;;;0.00;0.00;;;20.60;91.00;;;;;;4103679;28;20050;-72
2022/06/13 01:47:18;;;;;;;0.00;0.00;;;20.50;91.10;;;;;;4103538;28;20043;-73
2022/06/13 01:50:06;;;;;;;0.00;0.00;;;20.50;91.20;;;;;;4130710;28;20145;-74
2022/06/13 01:52:47;;;;;;;0.00;0.00;;;20.70;91.20;;;;;;4103344;28;20050;-73
2022/06/13 01:55:31;;;;;;;0.00;0.00;;;20.70;91.00;;;;;;4103406;28;20063;-76
2022/06/13 01:58:06;;;;;;;0.00;0.00;;;20.70;91.00;;;;;;4090258;28;20075;-71
2022/06/13 02:00:31;;;;;;;0.00;0.00;;;20.50;91.20;;;;;;4103129;28;20043;-74
2022/06/13 02:03:09;;;;;;;0.00;0.00;;;20.40;91.30;;;;;;4089309;28;20051;-70
2022/06/13 02:05:41;;;;;;;0.00;0.00;;;20.50;91.20;;;;;;4116948;28;20055;-74
2022/06/13 02:08:15;;;;;;;0.00;0.00;;;20.60;91.10;;;;;;4103149;28;20083;-73
2022/06/13 02:10:53;;;;;;;0.00;0.00;;;20.70;91.10;;;;;;4116692;28;20051;-72
2022/06/13 02:13:39;;;;;;;0.00;0.00;;;20.80;91.00;;;;;;4103057;28;20087;-73
2022/06/13 02:16:12;;;;;;;0.00;0.00;;;20.80;91.00;;;;;;4090058;28;20501;-75
2022/06/13 02:18:41;;;;;;;0.00;0.00;;;20.80;90.90;;;;;;4116223;28;20051;-72
2022/06/13 02:21:10;;;;;;;0.00;0.00;;;20.80;91.00;;;;;;4100677;29;20097;-72
2022/06/13 02:23:40;;;;;;;0.00;0.00;;;20.90;91.00;;;;;;4127152;28;20188;-72
2022/06/13 02:26:10;;;;;;;0.00;0.00;;;20.90;91.00;;;;;;4111898;28;20513;-72
2022/06/13 02:28:39;;;;;;;0.00;0.00;;;20.90;90.90;;;;;;4089846;28;20225;-74
2022/06/13 02:31:15;;;;;;;0.00;0.00;;;20.90;91.00;;;;;;4102795;28;20253;-71
2022/06/13 02:33:44;;;;;;;0.00;0.00;;;20.90;91.00;;;;;;4102825;28;20070;-72
2022/06/13 02:36:14;;;;;;;0.00;0.00;;;20.90;90.80;;;;;;4087160;29;20099;-74
2022/06/13 02:38:48;;;;;;;0.00;0.00;;;20.90;90.80;;;;;;4108379;28;20101;-74
2022/06/13 02:41:17;;;;;;;0.00;0.00;;;20.90;90.80;;;;;;4100334;29;20051;-74
2022/06/13 02:43:48;;;;;;;0.00;0.00;;;20.90;90.80;;;;;;4081902;28;20118;-73
2022/06/13 02:46:19;;;;;;;0.00;0.00;;;20.90;90.80;;;;;;4102936;28;20083;-74
2022/06/13 02:49:01;;;;;;;0.00;0.00;;;20.70;90.80;;;;;;4102866;28;20598;-74
2022/06/13 02:51:42;;;;;;;0.00;0.00;;;20.60;90.80;;;;;;4089234;28;20058;-75
2022/06/13 02:54:13;;;;;;;0.00;0.00;;;20.30;91.00;;;;;;4088944;28;20072;-72
2022/06/13 03:00:02;;;;;;;0.00;0.00;;;20.40;91.10;;;;;;4102185;28;19923;-72
2022/06/13 03:02:36;;;;;;;;;;;20.50;91.00;;;;;;4074891;28;20090;-74
2022/06/13 03:05:06;;;;;;;0.00;0.00;;;20.40;90.90;;;;;;4102429;28;19977;-71
2022/06/13 03:07:52;;;;;;;0.00;0.00;;;20.40;91.00;;;;;;4088939;28;20063;-72
2022/06/13 03:10:21;;;;;;;0.00;0.00;;;20.50;91.20;;;;;;4102496;28;20059;-73
2022/06/13 03:12:57;;;;;;;0.00;0.00;;;20.50;91.00;;;;;;4115997;28;20422;-72
2022/06/13 03:15:51;;;;;;;0.00;0.00;;;20.60;91.00;;;;;;4115924;28;20074;-74
2022/06/13 03:18:28;;;;;;;0.00;0.00;;;20.50;91.10;;;;;;4073000;28;20087;-74
2022/06/13 03:21:06;;;;;;;0.00;0.00;;;20.60;91.10;;;;;;4115531;28;20086;-75
2022/06/13 03:23:53;;;;;;;0.00;0.00;;;20.60;91.10;;;;;;4115829;28;20079;-73
2022/06/13 03:26:25;;;;;;;0.00;0.00;;;20.60;91.10;;;;;;4102216;28;20055;-76
2022/06/13 03:28:52;;;;;;;0.00;0.00;;;20.60;91.10;;;;;;4102389;28;20063;-75
2022/06/13 03:31:43;;;;;;;0.00;0.00;;;20.60;91.10;;;;;;4089098;28;20127;-72
2022/06/13 03:34:36;;;;;;;0.00;0.00;;;20.60;91.10;;;;;;4115530;28;20043;-73
2022/06/13 03:37:10;;;;;;;0.00;0.00;;;20.60;91.20;;;;;;4102043;28;20134;-75
2022/06/13 03:39:40;;;;;;;0.00;0.00;;;20.70;91.20;;;;;;4128963;28;20066;-73
2022/06/13 03:42:22;;;;;;;0.00;0.00;;;20.70;91.30;;;;;;4089148;28;20048;-73
2022/06/13 03:45:02;;;;;;;0.00;0.00;;;20.70;91.10;;;;;;4115425;28;20043;-73
2022/06/13 03:47:43;;;;;;;0.00;0.00;;;20.60;91.10;;;;;;4102144;28;20066;-74
2022/06/13 03:50:11;;;;;;;;;;;20.70;91.10;;;;;;4115823;28;20112;-74
2022/06/13 03:52:40;;;;;;;0.00;0.00;;;20.60;91.00;;;;;;4129161;28;19930;-73
2022/06/13 03:55:05;;;;;;;0.00;0.00;;;20.60;91.10;;;;;;4089683;28;20459;-74
2022/06/13 03:57:36;;;;;;;0.00;0.00;;;20.60;91.30;;;;;;4130056;28;20132;-75
2022/06/13 04:00:08;;;;;;;0.00;0.00;;;20.60;91.30;;;;;;4102503;28;20054;-73
2022/06/13 04:02:35;;;;;;;0.00;0.00;;;20.60;91.40;;;;;;4076117;28;20083;-75
2022/06/13 04:04:59;;;;;;;0.00;0.00;;;20.60;91.40;;;;;;4102469;28;20055;-73
2022/06/13 04:07:24;;;;;;;0.00;0.00;;;20.60;91.50;;;;;;4102782;28;20106;-74
2022/06/13 04:09:49;;;;;;;0.00;0.00;;;20.70;91.70;;;;;;4089284;28;20067;-74
2022/06/13 04:12:14;;;;;;;0.00;0.00;;;20.60;91.80;;;;;;4102734;28;20054;-71
2022/06/13 04:14:35;;;;;;;0.00;0.00;;;20.60;91.90;;;;;;4115891;28;20047;-72
2022/06/13 04:17:19;;;;;;;0.00;0.00;;;20.50;92.00;;;;;;4129469;28;20097;-73
2022/06/13 04:20:01;;;;;;;0.00;0.00;;;20.30;92.40;;;;;;4102487;28;20423;-74
2022/06/13 04:22:32;;;;;;;0.00;0.00;;;20.40;92.60;;;;;;4099537;29;20102;-73
2022/06/13 04:25:05;;;;;;;0.00;0.00;;;20.50;92.60;;;;;;4070750;28;20123;-74
2022/06/13 04:27:42;;;;;;;0.00;0.00;;;20.40;92.80;;;;;;4102317;28;20565;-74
2022/06/13 04:30:24;;;;;;;0.00;0.00;;;20.30;93.10;;;;;;4118229;28;20506;-73
2022/06/13 04:33:06;;;;;;;0.00;0.00;;;20.30;93.20;;;;;;4132078;28;20054;-72
2022/06/13 04:35:31;;;;;;;0.00;0.00;;;20.40;92.90;;;;;;4105038;28;20055;-72
2022/06/13 04:38:00;;;;;;;0.00;0.00;;;20.30;92.70;;;;;;4118672;28;20054;-73
2022/06/13 04:40:26;;;;;;;0.00;0.00;;;20.30;92.80;;;;;;4105086;28;20378;-75
2022/06/13 04:42:54;;;;;;;0.00;0.00;;;20.30;92.70;;;;;;4091911;28;20094;-74
2022/06/13 04:45:29;;;;;;;0.00;0.00;;;20.30;92.60;;;;;;4118277;28;20067;-73
2022/06/13 04:47:53;;;;;;;0.00;0.00;;;20.20;92.50;;;;;;4105211;28;20121;-74
2022/06/13 04:50:21;;;;;;;0.00;0.00;;;20.20;92.60;;;;;;4105496;28;20051;-72
2022/06/13 04:52:46;;;;;;;0.00;0.00;;;20.20;92.70;;;;;;4105060;28;20062;-73
2022/06/13 04:55:23;;;;;;;0.00;0.00;;;20.20;92.80;;;;;;4091803;28;20058;-72
2022/06/13 04:57:48;;;;;;;0.00;0.00;;;20.20;92.80;;;;;;4105183;28;20073;-73
2022/06/13 05:00:16;;;;;;;0.00;0.00;;;20.30;92.70;;;;;;4105023;28;20056;-73
2022/06/13 05:02:44;;;;;;;0.00;0.00;;;20.30;92.70;;;;;;4105122;28;20843;-75
2022/06/13 05:05:31;;;;;;;0.00;0.00;;;20.40;92.60;;;;;;4091668;28;20043;-70
2022/06/13 05:07:53;;;;;;;0.00;0.00;;;20.50;92.50;;;;;;4104870;28;20051;-72
2022/06/13 05:10:20;;;;;;;0.00;0.00;;;20.40;92.70;;;;;;4118456;28;20055;-73
2022/06/13 05:12:45;;;;;;;0.00;0.00;;;20.40;92.80;;;;;;4118276;28;20059;-76
2022/06/13 05:15:23;;;;;;;0.00;0.00;;;20.40;92.90;;;;;;4104739;28;20111;-75
2022/06/13 05:18:07;;;;;;;0.00;0.00;;;20.40;92.90;;;;;;4091424;28;20056;-74
2022/06/13 05:20:57;;;;;;;0.00;0.00;;;20.50;92.90;;;;;;4104541;28;20043;-72
2022/06/13 05:23:25;;;;;;;0.00;0.00;;;20.50;93.20;;;;;;4117830;28;20039;-73
2022/06/13 05:25:53;;;;;;;0.00;0.00;;;20.40;93.40;;;;;;4131562;28;20093;-71
2022/06/13 05:28:18;;;;;;;0.00;0.00;;;20.40;93.50;;;;;;4091314;28;20139;-73
2022/06/13 05:30:45;;;;;;;0.00;0.00;;;20.50;93.50;;;;;;4104570;28;20043;-75
2022/06/13 05:33:12;;;;;;;0.00;0.00;;;20.50;93.70;;;;;;4104554;28;20043;-71
2022/06/13 05:35:35;;;;;;;0.00;0.00;;;20.50;93.90;;;;;;4104337;28;20055;-71
2022/06/13 05:38:03;;;;;;;0.00;0.00;;;20.60;94.10;;;;;;4117883;28;20059;-72
2022/06/13 05:40:25;;;;;;;0.00;0.00;;;20.70;94.20;;;;;;4090970;28;20051;-72
2022/06/13 05:42:48;;;;;;;0.00;0.00;;;20.60;94.20;;;;;;4104309;28;20109;-72
2022/06/13 05:45:18;;;;;;;0.00;0.00;;;20.60;94.60;;;;;;4114742;28;20082;-71
2022/06/13 05:47:42;;;;;;;0.00;0.00;;;20.60;94.50;;;;;;4117910;28;20154;-71
2022/06/13 05:50:05;;;;;;;0.00;0.00;;;20.70;94.50;;;;;;4092733;28;20047;-71
2022/06/13 05:52:31;;;;;;;0.00;0.00;;;20.60;94.70;;;;;;4092465;28;20069;-69
2022/06/13 05:54:55;;;;;;;0.00;0.00;;;20.60;94.80;;;;;;4092168;28;20639;-73
2022/06/13 05:57:18;;;;;;;0.00;0.00;;;20.60;94.90;;;;;;4104518;28;20051;-71
2022/06/13 05:59:49;;;;;;;0.00;0.00;;;20.70;94.90;;;;;;4105111;28;20545;-71
2022/06/13 06:02:13;;;;;;;0.00;0.00;;;20.70;95.00;;;;;;4078765;28;20131;-71
2022/06/13 06:04:40;;;;;;;0.00;0.00;;;20.70;95.10;;;;;;4118101;28;20485;-72
2022/06/13 06:07:03;;;;;;;0.00;0.00;;;20.70;95.10;;;;;;4091907;28;20086;-70
2022/06/13 06:09:25;;;;;;;0.00;0.00;;;20.70;95.20;;;;;;4091486;28;20048;-72
2022/06/13 06:11:47;;;;;;;0.00;0.00;;;20.80;95.10;;;;;;4104716;28;20110;-72
2022/06/13 06:14:09;;;;;;;0.00;0.00;;;20.80;95.00;;;;;;4105033;28;20050;-69
2022/06/13 06:16:31;;;;;;;0.00;0.00;;;20.90;95.00;;;;;;4104550;28;20486;-72
2022/06/13 06:18:57;;;;;;;0.00;0.00;;;20.80;94.90;;;;;;4105093;28;20062;-70
2022/06/13 06:21:19;;;;;;;0.00;0.00;;;20.70;94.80;;;;;;4117670;28;20043;-72
2022/06/13 06:23:43;;;;;;;0.00;0.00;;;20.70;94.90;;;;;;4090803;28;20103;-69
2022/06/13 06:26:14;;;;;;;0.00;0.00;;;20.80;94.90;;;;;;4103794;28;20061;-73
2022/06/13 06:28:39;;;;;;;0.00;0.00;;;20.80;94.90;;;;;;4103615;28;20110;-71
2022/06/13 06:31:04;;;;;;;0.00;0.00;;;20.80;94.70;;;;;;4130360;28;20042;-73
2022/06/13 06:33:27;;;;;;;0.00;0.00;;;20.90;94.70;;;;;;4103510;28;20074;-73
2022/06/13 06:35:57;;;;;;;0.00;0.00;;;21.00;94.80;;;;;;4103813;28;20053;-73
2022/06/13 06:38:21;;;;;;;0.00;0.00;;;21.00;94.80;;;;;;4103573;28;20102;-74
2022/06/13 06:40:46;;;;;;;0.00;0.00;;;20.90;94.80;;;;;;4103479;28;20047;-75
2022/06/13 06:43:09;;;;;;;0.00;0.00;;;20.60;95.20;;;;;;4089980;28;20140;-71
2022/06/13 06:45:32;;;;;;;0.00;0.00;;;20.50;95.70;;;;;;4090394;28;20056;-75
2022/06/13 06:47:56;;;;;;;0.00;0.00;;;20.50;95.60;;;;;;4116890;28;20050;-75
2022/06/13 06:50:23;;;;;;;0.00;0.00;;;20.60;95.60;;;;;;4090444;28;20063;-71
2022/06/13 06:52:50;;;;;;;0.00;0.00;;;20.60;95.60;;;;;;4103697;28;20059;-74
2022/06/13 07:00:46;;;;;;;0.00;0.00;;;20.70;95.70;;;;;;4103141;28;20422;-75
2022/06/13 07:03:08;;;;;;;0.00;0.00;;;20.80;95.80;;;;;;4103261;28;20124;-76
2022/06/13 07:05:32;;;;;;;0.00;0.00;;;20.90;95.90;;;;;;4117161;28;20047;-72
2022/06/13 07:07:54;;;;;;;0.00;0.00;;;20.90;96.00;;;;;;4103352;28;20090;-74
2022/06/13 07:10:16;;;;;;;0.00;0.00;;;21.00;96.00;;;;;;4100736;29;20093;-75
2022/06/13 07:12:38;;;;;;;0.00;0.00;;;21.00;95.90;;;;;;4122234;28;20073;-72
2022/06/13 07:15:05;;;;;;;0.00;0.00;;;21.10;95.90;;;;;;4087091;29;20063;-73
2022/06/13 07:17:27;;;;;;;0.00;0.00;;;21.10;95.70;;;;;;4087327;29;20051;-77
2022/06/13 07:19:54;;;;;;;0.00;0.00;;;21.20;95.80;;;;;;4102641;28;20102;-72
2022/06/13 07:22:21;;;;;;;0.00;0.00;;;21.20;95.80;;;;;;4102926;28;20102;-70
2022/06/13 07:24:46;;;;;;;0.00;0.00;;;21.10;95.90;;;;;;4117133;28;20477;-74
2022/06/13 07:27:09;;;;;;;0.00;0.00;;;21.20;95.90;;;;;;4089625;28;20111;-72
2022/06/13 07:29:31;;;;;;;0.00;0.00;;;21.10;95.60;;;;;;4103011;28;20058;-73
2022/06/13 07:32:15;;;;;;;0.00;0.00;;;21.00;95.50;;;;;;4089387;28;20083;-72
2022/06/13 07:34:39;;;;;;;0.00;0.00;;;21.00;95.30;;;;;;4089777;28;20568;-74
2022/06/13 07:37:08;;;;;;;0.00;0.00;;;21.00;95.30;;;;;;4089325;28;20056;-71
2022/06/13 07:39:30;;;;;;;0.00;0.00;;;20.90;95.10;;;;;;4102994;28;20409;-73
2022/06/13 07:41:54;;;;;;;0.00;0.00;;;20.90;95.30;;;;;;4116848;28;20050;-73
2022/06/13 07:44:23;;;;;;;0.00;0.00;;;20.90;95.50;;;;;;4103451;28;20470;-71
2022/06/13 07:46:46;;;;;;;0.00;0.00;;;20.90;95.40;;;;;;4090368;28;20060;-71
2022/06/13 07:49:11;;;;;;;0.00;0.00;;;20.90;95.40;;;;;;4089766;28;20407;-75
2022/06/13 07:51:33;;;;;;;0.00;0.00;;;20.90;95.60;;;;;;4090087;28;20146;-73
2022/06/13 07:54:04;;;;;;;0.00;0.00;;;20.90;95.50;;;;;;4104591;28;20053;-70
2022/06/13 07:56:33;;;;;;;0.00;0.00;;;20.90;95.60;;;;;;4117319;28;20058;-72
2022/06/13 07:58:56;;;;;;;0.00;0.00;;;20.90;95.60;;;;;;4102872;28;20047;-71
2022/06/13 08:01:19;;;;;;;0.00;0.00;;;21.00;95.30;;;;;;4089615;28;20075;-72
2022/06/13 08:03:41;;;;;;;0.00;0.00;;;20.90;95.30;;;;;;4091568;28;20055;-73
2022/06/13 08:06:09;;;;;;;0.00;0.00;;;20.90;95.50;;;;;;4093358;28;20078;-74
2022/06/13 08:08:34;;;;;;;0.00;0.00;;;21.00;95.60;;;;;;4106192;28;20121;-74
2022/06/13 08:11:03;;;;;;;0.00;0.00;;;21.10;94.40;;;;;;4105895;28;20051;-75
2022/06/13 08:13:25;;;;;;;0.00;0.00;;;21.10;93.80;;;;;;4119287;28;20532;-75
2022/06/13 08:15:50;;;;;;;0.00;0.00;;;21.20;93.30;;;;;;4079209;28;20101;-74
2022/06/13 08:18:13;;;;;;;0.00;0.00;;;21.30;93.20;;;;;;4105693;28;20087;-74
2022/06/13 08:20:45;;;;;;;0.00;0.00;;;21.40;92.70;;;;;;4105469;28;20467;-72
2022/06/13 08:23:10;;;;;;;0.00;0.00;;;21.40;92.40;;;;;;4105488;28;20106;-72
2022/06/13 08:25:35;;;;;;;0.00;0.00;;;21.50;92.50;;;;;;4092899;28;20075;-72
2022/06/13 08:28:02;;;;;;;0.00;0.00;;;21.50;92.70;;;;;;4119168;28;20074;-76
2022/06/13 08:30:37;;;;;;;0.00;0.00;;;21.60;92.40;;;;;;4105794;28;20102;-72
2022/06/13 08:33:04;;;;;;;0.00;0.00;;;21.60;92.30;;;;;;4092473;28;20047;-72
2022/06/13 08:35:26;;;;;;;0.00;0.00;;;21.60;92.20;;;;;;4106285;28;20062;-72
2022/06/13 08:38:03;;;;;;;0.00;0.00;;;21.60;92.10;;;;;;4105402;28;20111;-70
2022/06/13 08:40:34;;;;;;;0.00;0.00;;;21.50;91.70;;;;;;4091866;28;20091;-72
2022/06/13 08:43:13;;;;;;;0.00;0.00;;;21.50;91.40;;;;;;4118726;28;20054;-71
2022/06/13 08:45:47;;;;;;;0.00;0.00;;;21.40;91.60;;;;;;4105411;28;20486;-72
2022/06/13 08:48:22;;;;;;;0.00;0.00;;;21.40;91.80;;;;;;4105099;28;20128;-72
2022/06/13 08:51:11;;;;;;;0.00;0.00;;;21.40;91.80;;;;;;4079078;28;20194;-72
2022/06/13 08:53:43;;;;;;;0.00;0.00;;;21.40;91.70;;;;;;4105100;28;20098;-72
2022/06/13 08:56:12;;;;;;;0.00;0.00;;;21.40;91.60;;;;;;4092494;28;20056;-73
2022/06/13 08:58:50;;;;;;;0.00;0.00;;;21.40;91.60;;;;;;4105873;28;20079;-73
2022/06/13 09:01:27;;;;;;;0.00;0.00;;;21.30;91.40;;;;;;4132546;28;20046;-72
2022/06/13 09:04:03;;;;;;;0.00;0.00;;;21.30;91.50;;;;;;4118299;28;20054;-74
2022/06/13 09:06:36;;;;;;;0.00;0.00;;;21.30;90.80;;;;;;4118245;28;20054;-71
2022/06/13 09:09:22;;;;;;;0.00;0.00;;;21.30;90.40;;;;;;4091725;28;20047;-72
2022/06/13 09:12:11;;;;;;;0.00;0.00;;;21.30;90.30;;;;;;4105300;28;20470;-70
2022/06/13 09:14:35;;;;;;;0.00;0.00;;;21.40;89.10;;;;;;4091615;28;20553;-71
2022/06/13 09:17:15;;;;;;;0.00;0.00;;;21.30;88.60;;;;;;4119564;28;20073;-72
2022/06/13 09:19:49;;;;;;;0.00;0.00;;;21.40;87.70;;;;;;4106674;28;20066;-74
2022/06/13 09:22:21;;;;;;;0.00;0.00;;;21.30;87.70;;;;;;4092133;28;20083;-73
2022/06/13 09:25:08;;;;;;;0.00;0.00;;;21.40;87.10;;;;;;4131790;28;20053;-71
2022/06/13 09:27:56;;;;;;;0.00;0.00;;;21.40;87.20;;;;;;4104668;28;20051;-74
2022/06/13 09:30:26;;;;;;;0.00;0.00;;;21.40;86.20;;;;;;4091371;28;20087;-74
2022/06/13 09:32:53;;;;;;;0.00;0.00;;;21.40;86.30;;;;;;4104489;28;20299;-72
2022/06/13 09:35:34;;;;;;;0.00;0.00;;;21.40;85.80;;;;;;4104766;28;20058;-74
2022/06/13 09:38:08;;;;;;;0.00;0.00;;;21.40;85.60;;;;;;4091380;28;20056;-75
2022/06/13 09:40:50;;;;;;;0.00;0.00;;;21.40;85.30;;;;;;4104268;28;20047;-71
2022/06/13 09:43:36;;;;;;;0.00;0.00;;;21.60;85.40;;;;;;4131896;28;20054;-71
2022/06/13 09:46:16;;;;;;;0.00;0.00;;;21.70;85.50;;;;;;4118195;28;20120;-71
2022/06/13 09:49:05;;;;;;;0.00;0.00;;;21.80;85.20;;;;;;4104500;28;20146;-71
2022/06/13 09:51:41;;;;;;;0.00;0.00;;;21.90;85.20;;;;;;4103985;28;20086;-73
2022/06/13 09:54:19;;;;;;;0.00;0.00;;;22.00;84.60;;;;;;4104081;28;20496;-73
2022/06/13 09:57:00;;;;;;;0.00;0.00;;;22.00;83.80;;;;;;4090530;28;20160;-73
2022/06/13 09:59:48;;;;;;;0.00;0.00;;;22.10;83.60;;;;;;4117833;28;20074;-69
2022/06/13 10:02:52;;;;;;;0.00;0.00;;;22.40;83.40;;;;;;4103772;28;20045;-71
2022/06/13 10:05:46;;;;;;;0.00;0.00;;;22.50;83.40;;;;;;4091741;28;20130;-71
2022/06/13 10:08:33;;;;;;;0.00;0.00;;;22.70;82.40;;;;;;4103769;28;20056;-70
2022/06/13 10:11:39;;;;;;;0.00;0.00;;;22.80;82.50;;;;;;4077489;28;20055;-72
2022/06/13 10:14:44;;;;;;;0.00;0.00;;;22.90;81.60;;;;;;4104098;28;20154;-71
2022/06/13 10:17:27;;;;;;;0.00;0.00;;;22.90;81.90;;;;;;4131041;28;20520;-71
2022/06/13 10:19:53;;;;;;;0.00;0.00;;;22.90;81.90;;;;;;4084487;28;20067;-68
2022/06/13 10:22:28;;;;;;;0.00;0.00;;;23.10;80.80;;;;;;4101532;29;20078;-71
2022/06/13 10:25:12;;;;;;;0.00;0.00;;;23.10;79.60;;;;;;4110879;28;20109;-70
2022/06/13 10:28:02;;;;;;;0.00;0.00;;;22.90;80.40;;;;;;4100372;28;20557;-71
2022/06/13 10:30:54;;;;;;;0.00;0.00;;;22.90;80.20;;;;;;4103969;28;20547;-72
2022/06/13 10:33:44;;;;;;;0.00;0.00;;;23.10;81.40;;;;;;4090644;28;20490;-71
2022/06/13 10:36:30;;;;;;;0.00;0.00;;;23.40;80.70;;;;;;4117053;28;20456;-71
2022/06/13 10:39:04;;;;;;;0.00;0.00;;;23.60;80.20;;;;;;4103711;28;20106;-71
2022/06/13 10:41:28;;;;;;;0.00;0.00;;;23.50;79.90;;;;;;4100747;29;20374;-73
2022/06/13 10:43:51;;;;;;;0.00;0.00;;;23.60;79.20;;;;;;4077058;28;20056;-70
2022/06/13 10:46:16;;;;;;;0.00;0.00;;;23.70;77.70;;;;;;4103423;28;20151;-72
2022/06/13 10:48:44;;;;;;;0.00;0.00;;;23.70;77.20;;;;;;4114525;28;20141;-71
2022/06/13 10:51:08;;;;;;;0.00;0.00;;;23.60;77.80;;;;;;4103413;28;20053;-72
2022/06/13 10:53:50;;;;;;;0.00;0.00;;;23.40;78.20;;;;;;4116799;28;20084;-71
2022/06/13 10:56:27;;;;;;;0.00;0.00;;;23.30;77.50;;;;;;4090046;28;20102;-72
2022/06/13 10:58:58;;;;;;;0.00;0.00;;;23.40;77.80;;;;;;4103755;28;20545;-72
2022/06/13 11:01:29;;;;;;;0.00;0.00;;;23.30;77.70;;;;;;4102991;28;20051;-73
2022/06/13 11:03:58;;;;;;;;;;;23.40;77.70;;;;;;4090412;28;20455;-70
2022/06/13 11:06:23;;;;;;;0.00;0.00;;;23.20;77.20;;;;;;4129765;28;19922;-71
2022/06/13 11:08:58;;;;;;;0.00;0.00;;;23.40;77.60;;;;;;4103151;28;20083;-70
2022/06/13 11:11:29;;;;;;;0.00;0.00;;;23.50;77.80;;;;;;4089917;28;20059;-70
2022/06/13 11:13:53;;;;;;;0.00;0.00;;;23.70;76.60;;;;;;4103111;28;20472;-73
2022/06/13 11:22:49;;;;;;;0.00;0.00;;;24.00;75.90;;;;;;4102968;28;20074;-71
2022/06/13 11:25:32;;;;;;;0.00;0.00;;;24.10;75.80;;;;;;4116342;28;20634;-71
2022/06/13 11:28:04;;;;;;;0.00;0.00;;;24.10;76.10;;;;;;4116384;28;20106;-71
2022/06/13 11:30:29;;;;;;;0.00;0.00;;;24.00;75.40;;;;;;4103146;28;20055;-72
2022/06/13 11:33:16;;;;;;;0.00;0.00;;;23.90;75.50;;;;;;4115835;28;20057;-72
2022/06/13 11:35:48;;;;;;;0.00;0.00;;;23.90;75.90;;;;;;4089487;28;20092;-70
2022/06/13 11:38:13;;;;;;;0.00;0.00;;;23.90;77.80;;;;;;4102293;28;20070;-73
2022/06/13 11:40:37;;;;;;;0.00;0.00;;;24.10;78.00;;;;;;4103082;28;20043;-72
2022/06/13 11:42:59;;;;;;;0.00;0.00;;;24.20;76.50;;;;;;4089492;28;20080;-69
2022/06/13 11:45:27;;;;;;;0.00;0.00;;;24.00;75.90;;;;;;4102920;28;20122;-71
2022/06/13 11:47:53;;;;;;;0.00;0.00;;;24.00;77.00;;;;;;4116426;28;20062;-71
2022/06/13 11:50:29;;;;;;;0.00;0.00;;;24.10;77.20;;;;;;4102965;28;20356;-71
2022/06/13 11:55:50;;;;;;;0.00;0.00;;;24.30;76.40;;;;;;4102840;28;20278;-72
2022/06/13 11:58:19;;;;;;;0.00;0.00;;;24.30;75.90;;;;;;4116304;28;20410;-72
2022/06/13 12:00:54;;;;;;;0.00;0.00;;;24.30;75.40;;;;;;4115973;28;20117;-70
2022/06/13 12:03:23;;;;;;;0.00;0.00;;;24.30;75.70;;;;;;4089291;28;20059;-72
2022/06/13 12:05:50;;;;;;;0.00;0.00;;;24.50;75.40;;;;;;4102821;28;20054;-70
2022/06/13 12:08:15;;;;;;;0.00;0.00;;;24.50;75.40;;;;;;4102873;28;20433;-70
2022/06/13 12:10:57;;;;;;;0.00;0.00;;;24.40;74.90;;;;;;4102649;28;20093;-73
2022/06/13 12:13:25;;;;;;;0.00;0.00;;;24.40;75.80;;;;;;4129357;28;20050;-73
2022/06/13 12:16:21;;;;;;;0.00;0.00;;;24.40;76.00;;;;;;4102526;28;20051;-72
2022/06/13 12:19:08;;;;;;;0.00;0.00;;;24.30;75.70;;;;;;4129681;28;20105;-71
2022/06/13 12:21:44;;;;;;;0.00;0.00;;;24.20;76.00;;;;;;4089037;28;20048;-72
2022/06/13 12:24:36;;;;;;;0.00;0.00;;;24.30;76.20;;;;;;4089624;28;20051;-70
2022/06/13 12:27:25;;;;;;;0.00;0.00;;;24.40;76.60;;;;;;4115815;28;20078;-71
2022/06/13 12:29:50;;;;;;;0.00;0.00;;;24.40;75.30;;;;;;4102580;28;20110;-71
2022/06/13 12:32:20;;;;;;;0.00;0.00;;;24.50;74.60;;;;;;4116043;28;20118;-69
2022/06/13 12:35:05;;;;;;;0.00;0.00;;;24.60;75.20;;;;;;4102443;28;20083;-73
2022/06/13 12:37:41;;;;;;;0.00;0.00;;;24.70;74.40;;;;;;4089222;28;20135;-72
2022/06/13 12:40:18;;;;;;;0.00;0.00;;;24.70;72.10;;;;;;4115959;28;20117;-71
2022/06/13 12:42:49;;;;;;;0.00;0.00;;;24.60;72.20;;;;;;4102326;28;20047;-72
2022/06/13 12:45:25;;;;;;;0.00;0.00;;;24.50;73.10;;;;;;4089414;28;20099;-72
2022/06/13 12:48:08;;;;;;;0.00;0.00;;;24.60;71.00;;;;;;4076967;28;20051;-73
2022/06/13 12:50:42;;;;;;;0.00;0.00;;;24.80;71.20;;;;;;4104280;28;20055;-73
2022/06/13 12:53:07;;;;;;;0.00;0.00;;;24.90;71.50;;;;;;4118534;28;20078;-72
2022/06/13 12:55:35;;;;;;;0.00;0.00;;;25.00;70.40;;;;;;4105250;28;20059;-75
2022/06/13 12:58:11;;;;;;;0.00;0.00;;;25.00;69.20;;;;;;4105163;28;20439;-70
2022/06/13 13:00:49;;;;;;;0.00;0.00;;;25.00;68.30;;;;;;4104882;28;20051;-71
2022/06/13 13:03:42;;;;;;;0.00;0.00;;;24.70;68.90;;;;;;4092021;28;20130;-72
2022/06/13 13:06:04;;;;;;;;;;;24.70;67.90;;;;;;4105640;28;20733;-71
2022/06/13 13:08:50;;;;;;;0.00;0.00;;;24.80;68.40;;;;;;4118132;28;19922;-71
2022/06/13 13:11:34;;;;;;;0.00;0.00;;;24.80;68.50;;;;;;4104882;28;20383;-73
2022/06/13 13:14:19;;;;;;;0.00;0.00;;;24.90;68.60;;;;;;4131835;28;20074;-74
2022/06/13 13:17:04;;;;;;;0.00;0.00;;;24.80;67.60;;;;;;4091778;28;20553;-70
2022/06/13 13:19:58;;;;;;;0.00;0.00;;;24.90;67.60;;;;;;4091562;28;20110;-73
2022/06/13 13:22:28;;;;;;;0.00;0.00;;;25.00;67.90;;;;;;4104125;28;20091;-73
2022/06/13 13:25:17;;;;;;;0.00;0.00;;;25.00;68.50;;;;;;4104945;28;20063;-73
2022/06/13 13:27:52;;;;;;;0.00;0.00;;;25.00;68.50;;;;;;4104520;28;20058;-74
2022/06/13 13:30:20;;;;;;;0.00;0.00;;;24.80;68.90;;;;;;4091381;28;20048;-71
2022/06/13 13:32:50;;;;;;;0.00;0.00;;;24.90;69.10;;;;;;4117984;28;20113;-72
2022/06/13 13:35:20;;;;;;;0.00;0.00;;;24.90;68.70;;;;;;4132042;28;20291;-69